createdAt,value
2018-04-13T00:00:12.528Z,975.18
2018-04-13T00:01:12.453Z,975.15
2018-04-13T00:02:12.379Z,975.16
2018-04-13T00:03:12.303Z,975.15
2018-04-13T00:04:12.226Z,975.16
2018-04-13T00:05:12.154Z,975.17
2018-04-13T00:06:12.082Z,975.15
2018-04-13T00:07:12.000Z,975.21
2018-04-13T00:08:11.923Z,975.20
2018-04-13T00:09:11.848Z,975.21
2018-04-13T00:10:11.772Z,975.22
2018-04-13T00:11:11.701Z,975.21
2018-04-13T00:12:11.624Z,975.21
2018-04-13T00:13:11.551Z,975.24
2018-04-13T00:14:11.471Z,975.20
2018-04-13T00:15:11.397Z,975.18
2018-04-13T00:16:11.319Z,975.19
2018-04-13T00:17:11.248Z,975.20
2018-04-13T00:18:11.169Z,975.22
2018-04-13T00:19:11.092Z,975.17
2018-04-13T00:20:11.016Z,975.24
2018-04-13T00:21:10.940Z,975.22
2018-04-13T00:22:10.864Z,975.19
2018-04-13T00:23:10.797Z,975.21
2018-04-13T00:24:10.713Z,975.20
2018-04-13T00:25:10.637Z,975.24
2018-04-13T00:26:10.562Z,975.23
2018-04-13T00:27:10.487Z,975.23
2018-04-13T00:28:10.409Z,975.24
2018-04-13T00:29:10.334Z,975.26
2018-04-13T00:30:10.258Z,975.21
2018-04-13T00:31:10.184Z,975.18
2018-04-13T00:32:10.106Z,975.21
2018-04-13T00:33:10.031Z,975.17
2018-04-13T00:34:09.955Z,975.17
2018-04-13T00:35:09.879Z,975.21
2018-04-13T00:36:09.803Z,975.15
2018-04-13T00:37:09.730Z,975.15
2018-04-13T00:38:09.651Z,975.16
2018-04-13T00:39:09.576Z,975.15
2018-04-13T00:40:09.499Z,975.16
2018-04-13T00:41:09.423Z,975.11
2018-04-13T00:42:09.348Z,975.13
2018-04-13T00:43:09.274Z,975.15
2018-04-13T00:44:09.197Z,975.13
2018-04-13T00:45:09.120Z,975.16
2018-04-13T00:46:09.044Z,975.14
2018-04-13T00:47:08.968Z,975.16
2018-04-13T00:48:08.892Z,975.19
2018-04-13T00:49:08.816Z,975.22
2018-04-13T00:50:08.740Z,975.20
2018-04-13T00:51:08.664Z,975.21
2018-04-13T00:52:08.588Z,975.19
2018-04-13T00:53:08.512Z,975.19
2018-04-13T00:54:08.450Z,975.20
2018-04-13T00:55:08.360Z,975.25
2018-04-13T00:56:08.284Z,975.22
2018-04-13T00:57:08.208Z,975.21
2018-04-13T00:58:08.133Z,975.22
2018-04-13T00:59:08.061Z,975.22
2018-04-13T01:00:07.979Z,975.25
2018-04-13T01:01:07.904Z,975.22
2018-04-13T01:02:07.828Z,975.24
2018-04-13T01:03:07.754Z,975.27
2018-04-13T01:04:07.676Z,975.30
2018-04-13T01:05:07.601Z,975.26
2018-04-13T01:06:07.525Z,975.30
2018-04-13T01:07:07.453Z,975.26
2018-04-13T01:08:07.372Z,975.28
2018-04-13T01:09:07.297Z,975.35
2018-04-13T01:10:07.221Z,975.31
2018-04-13T01:11:07.146Z,975.33
2018-04-13T01:12:07.072Z,975.37
2018-04-13T01:13:06.993Z,975.34
2018-04-13T01:14:06.919Z,975.35
2018-04-13T01:15:06.842Z,975.33
2018-04-13T01:16:06.767Z,975.33
2018-04-13T01:17:06.694Z,975.32
2018-04-13T01:18:06.615Z,975.34
2018-04-13T01:19:06.538Z,975.32
2018-04-13T01:20:06.463Z,975.32
2018-04-13T01:21:06.387Z,975.31
2018-04-13T01:22:06.311Z,975.29
2018-04-13T01:23:06.235Z,975.28
2018-04-13T01:24:06.158Z,975.29
2018-04-13T01:25:06.084Z,975.27
2018-04-13T01:26:06.007Z,975.28
2018-04-13T01:27:05.931Z,975.26
2018-04-13T01:28:05.855Z,975.27
2018-04-13T01:29:05.782Z,975.29
2018-04-13T01:30:05.703Z,975.24
2018-04-13T01:31:05.628Z,975.27
2018-04-13T01:32:05.552Z,975.26
2018-04-13T01:33:05.476Z,975.28
2018-04-13T01:34:05.400Z,975.27
2018-04-13T01:35:05.325Z,975.25
2018-04-13T01:36:05.249Z,975.29
2018-04-13T01:37:05.175Z,975.28
2018-04-13T01:38:05.096Z,975.29
2018-04-13T01:39:05.023Z,975.29
2018-04-13T01:40:04.945Z,975.32
2018-04-13T01:41:04.869Z,975.28
2018-04-13T01:42:04.793Z,975.27
2018-04-13T01:43:04.717Z,975.28
2018-04-13T01:44:04.641Z,975.31
2018-04-13T01:45:04.566Z,975.31
2018-04-13T01:46:04.489Z,975.28
2018-04-13T01:47:04.414Z,975.30
2018-04-13T01:48:04.338Z,975.30
2018-04-13T01:49:04.262Z,975.29
2018-04-13T01:50:04.185Z,975.29
2018-04-13T01:51:04.110Z,975.26
2018-04-13T01:52:04.034Z,975.28
2018-04-13T01:53:03.961Z,975.27
2018-04-13T01:54:03.887Z,975.25
2018-04-13T01:55:03.807Z,975.24
2018-04-13T01:56:03.730Z,975.22
2018-04-13T01:57:03.655Z,975.22
2018-04-13T01:58:03.583Z,975.21
2018-04-13T01:59:03.504Z,975.20
2018-04-13T02:00:03.427Z,975.20
2018-04-13T02:01:03.351Z,975.20
2018-04-13T02:02:03.276Z,975.19
2018-04-13T02:03:03.202Z,975.15
2018-04-13T02:04:03.124Z,975.19
2018-04-13T02:05:03.052Z,975.17
2018-04-13T02:06:02.973Z,975.18
2018-04-13T02:07:02.897Z,975.20
2018-04-13T02:08:02.821Z,975.18
2018-04-13T02:09:02.746Z,975.12
2018-04-13T02:10:02.670Z,975.18
2018-04-13T02:11:02.595Z,975.19
2018-04-13T02:12:02.518Z,975.20
2018-04-13T02:13:02.443Z,975.18
2018-04-13T02:14:02.371Z,975.20
2018-04-13T02:15:02.293Z,975.17
2018-04-13T02:16:02.218Z,975.13
2018-04-13T02:17:02.145Z,975.19
2018-04-13T02:18:02.067Z,975.17
2018-04-13T02:19:01.990Z,975.17
2018-04-13T02:20:01.915Z,975.18
2018-04-13T02:21:01.836Z,975.14
2018-04-13T02:22:01.760Z,975.20
2018-04-13T02:23:01.686Z,975.19
2018-04-13T02:24:01.608Z,975.22
2018-04-13T02:25:01.533Z,975.21
2018-04-13T02:26:01.460Z,975.24
2018-04-13T02:27:01.382Z,975.23
2018-04-13T02:28:01.306Z,975.22
2018-04-13T02:29:01.230Z,975.20
2018-04-13T02:30:01.169Z,975.22
2018-04-13T02:31:01.078Z,975.27
2018-04-13T02:32:01.002Z,975.26
2018-04-13T02:33:00.927Z,975.30
2018-04-13T02:34:00.850Z,975.31
2018-04-13T02:35:00.774Z,975.33
2018-04-13T02:36:00.698Z,975.31
2018-04-13T02:37:00.623Z,975.35
2018-04-13T02:38:00.547Z,975.35
2018-04-13T02:39:00.471Z,975.38
2018-04-13T02:40:00.394Z,975.37
2018-04-13T02:41:00.319Z,975.38
2018-04-13T02:42:00.243Z,975.38
2018-04-13T02:43:00.168Z,975.36
2018-04-13T02:44:00.092Z,975.37
2018-04-13T02:45:00.017Z,975.35
2018-04-13T02:45:59.939Z,975.35
2018-04-13T02:46:59.864Z,975.33
2018-04-13T02:47:59.790Z,975.36
2018-04-13T02:48:59.710Z,975.36
2018-04-13T02:49:59.636Z,975.36
2018-04-13T02:50:59.560Z,975.37
2018-04-13T02:51:59.482Z,975.33
2018-04-13T02:52:59.408Z,975.36
2018-04-13T02:53:59.332Z,975.33
2018-04-13T02:54:59.255Z,975.36
2018-04-13T02:55:59.180Z,975.34
2018-04-13T02:56:59.104Z,975.33
2018-04-13T02:57:59.027Z,975.33
2018-04-13T02:58:58.953Z,975.38
2018-04-13T02:59:58.878Z,975.39
2018-04-13T03:00:58.801Z,975.38
2018-04-13T03:01:58.724Z,975.41
2018-04-13T03:02:58.649Z,975.36
2018-04-13T03:03:58.572Z,975.38
2018-04-13T03:04:58.496Z,975.41
2018-04-13T03:05:58.422Z,975.42
2018-04-13T03:06:58.343Z,975.43
2018-04-13T03:07:58.269Z,975.41
2018-04-13T03:08:58.193Z,975.43
2018-04-13T03:09:58.116Z,975.41
2018-04-13T03:10:58.041Z,975.38
2018-04-13T03:11:57.964Z,975.35
2018-04-13T03:12:57.889Z,975.36
2018-04-13T03:13:57.814Z,975.33
2018-04-13T03:14:57.738Z,975.31
2018-04-13T03:15:57.661Z,975.31
2018-04-13T03:16:57.585Z,975.30
2018-04-13T03:17:57.511Z,975.30
2018-04-13T03:18:57.435Z,975.31
2018-04-13T03:19:57.357Z,975.29
2018-04-13T03:20:57.284Z,975.29
2018-04-13T03:21:57.207Z,975.34
2018-04-13T03:22:57.132Z,975.30
2018-04-13T03:23:57.060Z,975.29
2018-04-13T03:24:56.979Z,975.26
2018-04-13T03:25:56.905Z,975.31
2018-04-13T03:26:56.828Z,975.32
2018-04-13T03:27:56.752Z,975.35
2018-04-13T03:28:56.677Z,975.34
2018-04-13T03:29:56.600Z,975.37
2018-04-13T03:30:56.525Z,975.36
2018-04-13T03:31:56.448Z,975.38
2018-04-13T03:32:56.372Z,975.37
2018-04-13T03:33:56.298Z,975.33
2018-04-13T03:34:56.221Z,975.37
2018-04-13T03:35:56.144Z,975.37
2018-04-13T03:36:56.070Z,975.39
2018-04-13T03:37:55.993Z,975.38
2018-04-13T03:38:55.917Z,975.39
2018-04-13T03:39:55.839Z,975.40
2018-04-13T03:40:55.765Z,975.38
2018-04-13T03:41:55.688Z,975.36
2018-04-13T03:42:55.612Z,975.37
2018-04-13T03:43:55.537Z,975.38
2018-04-13T03:44:55.460Z,975.37
2018-04-13T03:45:55.386Z,975.38
2018-04-13T03:46:55.310Z,975.44
2018-04-13T03:47:55.233Z,975.43
2018-04-13T03:48:55.158Z,975.48
2018-04-13T03:49:55.081Z,975.47
2018-04-13T03:50:55.006Z,975.47
2018-04-13T03:51:54.929Z,975.44
2018-04-13T03:52:54.852Z,975.45
2018-04-13T03:53:54.777Z,975.47
2018-04-13T03:54:54.703Z,975.47
2018-04-13T03:55:54.624Z,975.49
2018-04-13T03:56:54.549Z,975.45
2018-04-13T03:57:54.473Z,975.47
2018-04-13T03:58:54.397Z,975.48
2018-04-13T03:59:54.321Z,975.46
2018-04-13T04:00:54.245Z,975.49
2018-04-13T04:01:54.170Z,975.50
2018-04-13T04:02:54.097Z,975.50
2018-04-13T04:03:54.018Z,975.48
2018-04-13T04:04:53.941Z,975.47
2018-04-13T04:05:53.865Z,975.44
2018-04-13T04:06:53.788Z,975.42
2018-04-13T04:07:54.013Z,975.40
2018-04-13T04:08:53.635Z,975.37
2018-04-13T04:09:53.559Z,975.35
2018-04-13T04:10:53.484Z,975.34
2018-04-13T04:11:53.408Z,975.38
2018-04-13T04:12:53.332Z,975.42
2018-04-13T04:13:53.254Z,975.43
2018-04-13T04:14:53.179Z,975.45
2018-04-13T04:15:53.103Z,975.50
2018-04-13T04:16:53.030Z,975.50
2018-04-13T04:17:52.952Z,975.54
2018-04-13T04:18:52.875Z,975.59
2018-04-13T04:19:52.799Z,975.61
2018-04-13T04:20:52.723Z,975.65
2018-04-13T04:21:52.650Z,975.69
2018-04-13T04:22:52.572Z,975.68
2018-04-13T04:23:52.495Z,975.69
2018-04-13T04:24:52.424Z,975.66
2018-04-13T04:25:52.345Z,975.68
2018-04-13T04:26:52.268Z,975.73
2018-04-13T04:27:52.192Z,975.74
2018-04-13T04:28:52.116Z,975.71
2018-04-13T04:29:52.041Z,975.75
2018-04-13T04:30:51.966Z,975.79
2018-04-13T04:31:51.889Z,975.82
2018-04-13T04:32:51.813Z,975.83
2018-04-13T04:33:51.741Z,975.81
2018-04-13T04:34:51.663Z,975.85
2018-04-13T04:35:51.585Z,975.88
2018-04-13T04:36:51.510Z,975.89
2018-04-13T04:37:51.434Z,975.89
2018-04-13T04:38:51.360Z,975.90
2018-04-13T04:39:51.283Z,975.91
2018-04-13T04:40:51.208Z,975.92
2018-04-13T04:41:51.131Z,975.94
2018-04-13T04:42:51.057Z,975.97
2018-04-13T04:43:50.980Z,975.96
2018-04-13T04:44:50.905Z,975.98
2018-04-13T04:45:50.829Z,975.99
2018-04-13T04:46:50.754Z,976.00
2018-04-13T04:47:50.680Z,976.02
2018-04-13T04:48:50.601Z,975.99
2018-04-13T04:49:50.526Z,975.96
2018-04-13T04:50:50.453Z,975.99
2018-04-13T04:51:50.375Z,975.99
2018-04-13T04:52:50.300Z,976.01
2018-04-13T04:53:50.226Z,975.99
2018-04-13T04:54:50.150Z,975.98
2018-04-13T04:55:50.075Z,975.98
2018-04-13T04:56:49.998Z,976.00
2018-04-13T04:57:49.924Z,975.97
2018-04-13T04:58:49.850Z,975.96
2018-04-13T04:59:49.771Z,975.97
2018-04-13T05:00:49.697Z,975.97
2018-04-13T05:01:49.621Z,975.99
2018-04-13T05:02:49.551Z,975.98
2018-04-13T05:03:49.470Z,975.99
2018-04-13T05:04:49.396Z,976.04
2018-04-13T05:05:49.320Z,976.00
2018-04-13T05:06:49.246Z,976.05
2018-04-13T05:07:49.170Z,976.06
2018-04-13T05:08:49.094Z,976.09
2018-04-13T05:09:49.018Z,976.08
2018-04-13T05:10:48.944Z,976.10
2018-04-13T05:11:48.872Z,976.08
2018-04-13T05:12:48.793Z,976.11
2018-04-13T05:13:48.717Z,976.09
2018-04-13T05:14:48.642Z,976.15
2018-04-13T05:15:48.566Z,976.13
2018-04-13T05:16:48.490Z,976.15
2018-04-13T05:17:48.416Z,976.17
2018-04-13T05:18:48.340Z,976.13
2018-04-13T05:19:48.265Z,976.16
2018-04-13T05:20:48.190Z,976.16
2018-04-13T05:21:48.113Z,976.17
2018-04-13T05:22:48.040Z,976.17
2018-04-13T05:23:47.963Z,976.21
2018-04-13T05:24:47.889Z,976.21
2018-04-13T05:25:47.815Z,976.20
2018-04-13T05:26:47.740Z,976.19
2018-04-13T05:27:47.665Z,976.25
2018-04-13T05:28:47.589Z,976.20
2018-04-13T05:29:47.515Z,976.23
2018-04-13T05:30:47.439Z,976.21
2018-04-13T05:31:47.362Z,976.19
2018-04-13T05:32:47.291Z,976.27
2018-04-13T05:33:47.214Z,976.28
2018-04-13T05:34:47.137Z,976.33
2018-04-13T05:35:47.062Z,976.34
2018-04-13T05:36:46.987Z,976.36
2018-04-13T05:37:46.913Z,976.37
2018-04-13T05:38:46.841Z,976.42
2018-04-13T05:39:46.762Z,976.40
2018-04-13T05:40:46.687Z,976.43
2018-04-13T05:41:46.612Z,976.47
2018-04-13T05:42:46.538Z,976.43
2018-04-13T05:43:46.461Z,976.47
2018-04-13T05:44:46.388Z,976.45
2018-04-13T05:45:46.317Z,976.42
2018-04-13T05:46:46.239Z,976.43
2018-04-13T05:47:46.163Z,976.37
2018-04-13T05:48:46.089Z,976.42
2018-04-13T05:49:46.014Z,976.43
2018-04-13T05:50:45.940Z,976.47
2018-04-13T05:51:45.864Z,976.47
2018-04-13T05:52:45.790Z,976.52
2018-04-13T05:53:45.716Z,976.56
2018-04-13T05:54:45.642Z,976.58
2018-04-13T05:55:45.565Z,976.59
2018-04-13T05:56:45.492Z,976.62
2018-04-13T05:57:45.417Z,976.59
2018-04-13T05:58:45.343Z,976.57
2018-04-13T05:59:45.269Z,976.58
2018-04-13T06:00:45.194Z,976.54
2018-04-13T06:01:45.121Z,976.54
2018-04-13T06:02:45.047Z,976.55
2018-04-13T06:03:44.970Z,976.52
2018-04-13T06:04:44.896Z,976.50
2018-04-13T06:05:44.823Z,976.51
2018-04-13T06:06:44.749Z,976.50
2018-04-13T06:07:44.676Z,976.53
2018-04-13T06:08:44.600Z,976.57
2018-04-13T06:09:44.528Z,976.56
2018-04-13T06:10:44.453Z,976.61
2018-04-13T06:11:44.377Z,976.62
2018-04-13T06:12:44.302Z,976.63
2018-04-13T06:13:44.228Z,976.63
2018-04-13T06:14:44.154Z,976.63
2018-04-13T06:15:44.079Z,976.65
2018-04-13T06:16:44.009Z,976.65
2018-04-13T06:17:43.930Z,976.63
2018-04-13T06:18:43.860Z,976.65
2018-04-13T06:19:43.782Z,976.64
2018-04-13T06:20:43.708Z,976.65
2018-04-13T06:21:43.634Z,976.64
2018-04-13T06:22:43.560Z,976.64
2018-04-13T06:23:43.484Z,976.62
2018-04-13T06:24:43.411Z,976.71
2018-04-13T06:25:43.337Z,976.68
2018-04-13T06:26:43.261Z,976.69
2018-04-13T06:27:43.187Z,976.74
2018-04-13T06:28:43.113Z,976.76
2018-04-13T06:29:43.039Z,976.78
2018-04-13T06:30:42.966Z,976.77
2018-04-13T06:31:42.890Z,976.80
2018-04-13T06:32:42.816Z,976.79
2018-04-13T06:33:42.742Z,976.80
2018-04-13T06:34:42.668Z,976.83
2018-04-13T06:35:42.592Z,976.91
2018-04-13T06:36:42.519Z,976.93
2018-04-13T06:37:42.447Z,976.93
2018-04-13T06:38:42.370Z,976.97
2018-04-13T06:39:42.295Z,976.94
2018-04-13T06:40:42.220Z,976.96
2018-04-13T06:41:42.148Z,976.96
2018-04-13T06:42:42.073Z,976.98
2018-04-13T06:43:42.107Z,977.00
2018-04-13T06:44:41.924Z,977.02
2018-04-13T06:45:41.851Z,977.04
2018-04-13T06:46:41.777Z,977.06
2018-04-13T06:47:41.702Z,977.11
2018-04-13T06:48:41.711Z,977.12
2018-04-13T06:49:41.555Z,977.17
2018-04-13T06:50:41.483Z,977.16
2018-04-13T06:51:41.407Z,977.22
2018-04-13T06:52:41.333Z,977.26
2018-04-13T06:53:41.258Z,977.29
2018-04-13T06:54:41.185Z,977.34
2018-04-13T06:55:41.110Z,977.34
2018-04-13T06:56:41.139Z,977.33
2018-04-13T06:57:40.962Z,977.33
2018-04-13T06:58:40.887Z,977.32
2018-04-13T06:59:40.814Z,977.35
2018-04-13T07:00:40.740Z,977.38
2018-04-13T07:01:40.666Z,977.40
2018-04-13T07:02:40.593Z,977.43
2018-04-13T07:03:40.517Z,977.50
2018-04-13T07:04:40.443Z,977.52
2018-04-13T07:05:40.369Z,977.59
2018-04-13T07:06:40.295Z,977.64
2018-04-13T07:07:40.222Z,977.63
2018-04-13T07:08:40.154Z,977.66
2018-04-13T07:09:40.074Z,977.69
2018-04-13T07:10:40.000Z,977.73
2018-04-13T07:11:39.925Z,977.74
2018-04-13T07:12:39.852Z,977.75
2018-04-13T07:13:39.781Z,977.78
2018-04-13T07:14:39.704Z,977.81
2018-04-13T07:15:39.629Z,977.80
2018-04-13T07:16:39.556Z,977.79
2018-04-13T07:17:39.485Z,977.84
2018-04-13T07:18:39.407Z,977.82
2018-04-13T07:19:39.332Z,977.88
2018-04-13T07:20:39.260Z,977.88
2018-04-13T07:21:39.186Z,977.89
2018-04-13T07:22:39.112Z,977.92
2018-04-13T07:23:39.037Z,977.91
2018-04-13T07:24:38.968Z,977.92
2018-04-13T07:25:38.890Z,977.94
2018-04-13T07:26:38.829Z,977.94
2018-04-13T07:27:38.739Z,977.97
2018-04-13T07:28:38.667Z,978.01
2018-04-13T07:29:38.594Z,978.01
2018-04-13T07:30:38.518Z,978.02
2018-04-13T07:31:38.445Z,978.10
2018-04-13T07:32:38.367Z,978.13
2018-04-13T07:33:38.843Z,978.13
2018-04-13T07:34:38.223Z,978.18
2018-04-13T07:35:38.144Z,978.16
2018-04-13T07:36:38.071Z,978.21
2018-04-13T07:37:37.996Z,978.25
2018-04-13T07:38:37.923Z,978.24
2018-04-13T07:39:37.848Z,978.25
2018-04-13T07:40:37.776Z,978.26
2018-04-13T07:41:37.698Z,978.20
2018-04-13T07:42:37.624Z,978.18
2018-04-13T07:43:37.550Z,978.19
2018-04-13T07:44:37.475Z,978.16
2018-04-13T07:45:37.402Z,978.17
2018-04-13T07:46:37.326Z,978.16
2018-04-13T07:47:37.251Z,978.13
2018-04-13T07:48:37.178Z,978.15
2018-04-13T07:49:37.548Z,978.16
2018-04-13T07:50:37.027Z,978.14
2018-04-13T07:51:36.953Z,978.13
2018-04-13T07:52:36.877Z,978.15
2018-04-13T07:53:36.804Z,978.15
2018-04-13T07:54:36.728Z,978.19
2018-04-13T07:55:36.654Z,978.21
2018-04-13T07:56:36.578Z,978.21
2018-04-13T07:57:36.504Z,978.22
2018-04-13T07:58:36.431Z,978.25
2018-04-13T07:59:36.355Z,978.23
2018-04-13T08:00:36.280Z,978.23
2018-04-13T08:01:36.206Z,978.28
2018-04-13T08:02:36.208Z,978.25
2018-04-13T08:03:36.055Z,978.26
2018-04-13T08:04:35.981Z,978.28
2018-04-13T08:05:35.909Z,978.29
2018-04-13T08:06:35.833Z,978.32
2018-04-13T08:07:35.757Z,978.32
2018-04-13T08:08:35.682Z,978.32
2018-04-13T08:09:35.607Z,978.32
2018-04-13T08:10:35.532Z,978.31
2018-04-13T08:11:35.635Z,978.30
2018-04-13T08:12:35.384Z,978.34
2018-04-13T08:13:35.309Z,978.33
2018-04-13T08:14:35.240Z,978.41
2018-04-13T08:15:35.158Z,978.47
2018-04-13T08:16:35.083Z,978.53
2018-04-13T08:17:35.010Z,978.57
2018-04-13T08:18:34.935Z,978.57
2018-04-13T08:19:34.859Z,978.60
2018-04-13T08:20:34.784Z,978.61
2018-04-13T08:21:34.712Z,978.61
2018-04-13T08:22:34.638Z,978.62
2018-04-13T08:23:34.560Z,978.65
2018-04-13T08:24:34.485Z,978.63
2018-04-13T08:25:34.410Z,978.62
2018-04-13T08:26:34.335Z,978.69
2018-04-13T08:27:34.260Z,978.68
2018-04-13T08:28:34.185Z,978.73
2018-04-13T08:29:34.109Z,978.73
2018-04-13T08:30:34.036Z,978.73
2018-04-13T08:31:33.965Z,978.77
2018-04-13T08:32:33.886Z,978.84
2018-04-13T08:33:33.837Z,978.86
2018-04-13T08:34:33.736Z,978.92
2018-04-13T08:35:33.673Z,978.92
2018-04-13T08:36:33.586Z,978.85
2018-04-13T08:37:33.511Z,978.86
2018-04-13T08:38:33.436Z,978.84
2018-04-13T08:39:33.384Z,978.81
2018-04-13T08:40:33.331Z,978.80
2018-04-13T08:41:33.210Z,978.81
2018-04-13T08:42:33.136Z,978.80
2018-04-13T08:43:33.133Z,978.76
2018-04-13T08:44:32.985Z,978.78
2018-04-13T08:45:32.952Z,978.80
2018-04-13T08:46:32.835Z,978.81
2018-04-13T08:47:32.761Z,978.84
2018-04-13T08:48:32.792Z,978.87
2018-04-13T08:49:32.628Z,978.86
2018-04-13T08:50:32.535Z,978.87
2018-04-13T08:51:32.464Z,978.87
2018-04-13T08:52:32.398Z,978.87
2018-04-13T08:53:32.310Z,978.92
2018-04-13T08:54:32.236Z,978.96
2018-04-13T08:55:32.161Z,978.95
2018-04-13T08:56:32.087Z,978.98
2018-04-13T08:57:32.010Z,979.00
2018-04-13T08:58:31.939Z,979.06
2018-04-13T08:59:31.862Z,979.13
2018-04-13T09:00:31.788Z,979.15
2018-04-13T09:01:31.715Z,979.20
2018-04-13T09:02:31.636Z,979.22
2018-04-13T09:03:31.561Z,979.23
2018-04-13T09:04:31.486Z,979.24
2018-04-13T09:05:31.413Z,979.28
2018-04-13T09:06:31.396Z,979.28
2018-04-13T09:07:31.262Z,979.30
2018-04-13T09:08:31.200Z,979.27
2018-04-13T09:09:31.111Z,979.29
2018-04-13T09:10:31.037Z,979.35
2018-04-13T09:11:30.962Z,979.35
2018-04-13T09:12:30.887Z,979.35
2018-04-13T09:13:30.813Z,979.42
2018-04-13T09:14:30.741Z,979.42
2018-04-13T09:15:30.665Z,979.43
2018-04-13T09:16:30.593Z,979.46
2018-04-13T09:17:30.512Z,979.51
2018-04-13T09:18:30.439Z,979.54
2018-04-13T09:19:30.363Z,979.54
2018-04-13T09:20:30.289Z,979.52
2018-04-13T09:21:30.218Z,979.57
2018-04-13T09:22:30.138Z,979.57
2018-04-13T09:23:30.063Z,979.58
2018-04-13T09:24:29.988Z,979.62
2018-04-13T09:25:29.913Z,979.66
2018-04-13T09:26:29.838Z,979.67
2018-04-13T09:27:29.762Z,979.67
2018-04-13T09:28:29.694Z,979.70
2018-04-13T09:29:29.614Z,979.70
2018-04-13T09:30:29.541Z,979.70
2018-04-13T09:31:29.463Z,979.71
2018-04-13T09:32:29.388Z,979.76
2018-04-13T09:33:29.314Z,979.77
2018-04-13T09:34:29.239Z,979.75
2018-04-13T09:35:29.169Z,979.83
2018-04-13T09:36:29.088Z,979.87
2018-04-13T09:37:29.027Z,979.91
2018-04-13T09:38:28.939Z,979.89
2018-04-13T09:39:28.866Z,979.92
2018-04-13T09:40:28.789Z,979.89
2018-04-13T09:41:28.715Z,979.93
2018-04-13T09:42:28.638Z,979.94
2018-04-13T09:43:28.565Z,979.91
2018-04-13T09:44:28.490Z,979.96
2018-04-13T09:45:28.415Z,979.90
2018-04-13T09:46:28.346Z,979.98
2018-04-13T09:47:28.265Z,979.93
2018-04-13T09:48:28.192Z,980.02
2018-04-13T09:49:28.121Z,980.04
2018-04-13T09:50:28.042Z,980.09
2018-04-13T09:51:27.966Z,980.12
2018-04-13T09:52:27.889Z,980.14
2018-04-13T09:53:27.814Z,980.17
2018-04-13T09:54:27.738Z,980.21
2018-04-13T09:55:27.662Z,980.25
2018-04-13T09:56:27.587Z,980.31
2018-04-13T09:57:27.512Z,980.32
2018-04-13T09:58:27.437Z,980.27
2018-04-13T09:59:27.361Z,980.28
2018-04-13T10:00:27.286Z,980.33
2018-04-13T10:01:27.211Z,980.34
2018-04-13T10:02:27.136Z,980.35
2018-04-13T10:03:27.060Z,980.35
2018-04-13T10:04:26.985Z,980.35
2018-04-13T10:05:26.909Z,980.39
2018-04-13T10:06:26.842Z,980.40
2018-04-13T10:07:26.758Z,980.41
2018-04-13T10:08:26.683Z,980.48
2018-04-13T10:09:26.610Z,980.50
2018-04-13T10:10:26.533Z,980.46
2018-04-13T10:11:26.457Z,980.48
2018-04-13T10:12:26.383Z,980.42
2018-04-13T10:13:26.308Z,980.42
2018-04-13T10:14:26.232Z,980.42
2018-04-13T10:15:26.158Z,980.43
2018-04-13T10:16:26.080Z,980.44
2018-04-13T10:17:26.007Z,980.46
2018-04-13T10:18:25.932Z,980.50
2018-04-13T10:19:25.856Z,980.52
2018-04-13T10:20:25.782Z,980.55
2018-04-13T10:21:25.706Z,980.52
2018-04-13T10:22:25.630Z,980.50
2018-04-13T10:23:25.556Z,980.50
2018-04-13T10:24:25.512Z,980.53
2018-04-13T10:25:25.407Z,980.59
2018-04-13T10:26:25.332Z,980.55
2018-04-13T10:27:25.256Z,980.58
2018-04-13T10:28:25.180Z,980.59
2018-04-13T10:29:25.105Z,980.58
2018-04-13T10:30:25.032Z,980.61
2018-04-13T10:31:24.955Z,980.65
2018-04-13T10:32:24.880Z,980.65
2018-04-13T10:33:24.805Z,980.65
2018-04-13T10:34:24.733Z,980.62
2018-04-13T10:35:24.655Z,980.67
2018-04-13T10:36:24.581Z,980.72
2018-04-13T10:37:24.506Z,980.75
2018-04-13T10:38:24.430Z,980.83
2018-04-13T10:39:24.355Z,980.83
2018-04-13T10:40:24.280Z,980.85
2018-04-13T10:41:24.206Z,980.86
2018-04-13T10:42:24.129Z,980.88
2018-04-13T10:43:24.055Z,980.93
2018-04-13T10:44:23.979Z,980.90
2018-04-13T10:45:23.905Z,980.92
2018-04-13T10:46:23.830Z,980.91
2018-04-13T10:47:23.756Z,980.92
2018-04-13T10:48:23.679Z,980.95
2018-04-13T10:49:23.624Z,980.99
2018-04-13T10:50:23.528Z,980.95
2018-04-13T10:51:23.453Z,981.00
2018-04-13T10:52:23.380Z,980.96
2018-04-13T10:53:23.304Z,981.04
2018-04-13T10:54:23.236Z,981.04
2018-04-13T10:55:23.152Z,981.09
2018-04-13T10:56:23.077Z,981.12
2018-04-13T10:57:23.002Z,981.14
2018-04-13T10:58:22.927Z,981.20
2018-04-13T10:59:22.856Z,981.25
2018-04-13T11:00:22.776Z,981.27
2018-04-13T11:01:22.704Z,981.30
2018-04-13T11:02:22.624Z,981.53
2018-04-13T11:03:22.558Z,981.56
2018-04-13T11:04:22.475Z,981.49
2018-04-13T11:05:22.400Z,981.49
2018-04-13T11:06:22.323Z,981.47
2018-04-13T11:07:22.249Z,981.49
2018-04-13T11:08:22.172Z,981.51
2018-04-13T11:09:22.097Z,981.55
2018-04-13T11:10:22.028Z,981.57
2018-04-13T11:11:21.946Z,981.58
2018-04-13T11:12:21.868Z,981.56
2018-04-13T11:13:21.792Z,981.62
2018-04-13T11:14:21.717Z,981.58
2018-04-13T11:15:21.640Z,981.63
2018-04-13T11:16:21.564Z,981.68
2018-04-13T11:17:21.489Z,981.66
2018-04-13T11:18:21.412Z,981.65
2018-04-13T11:19:21.335Z,981.69
2018-04-13T11:20:21.260Z,981.67
2018-04-13T11:21:21.182Z,981.72
2018-04-13T11:22:21.107Z,981.69
2018-04-13T11:23:21.033Z,981.73
2018-04-13T11:24:20.954Z,981.74
2018-04-13T11:25:20.878Z,981.79
2018-04-13T11:26:20.801Z,981.77
2018-04-13T11:27:20.725Z,981.75
2018-04-13T11:28:20.651Z,981.74
2018-04-13T11:29:20.574Z,981.78
2018-04-13T11:30:20.497Z,981.79
2018-04-13T11:31:20.420Z,981.80
2018-04-13T11:32:20.345Z,981.80
2018-04-13T11:33:20.269Z,981.79
2018-04-13T11:34:20.192Z,981.78
2018-04-13T11:35:20.117Z,981.84
2018-04-13T11:36:20.044Z,981.87
2018-04-13T11:37:19.965Z,981.93
2018-04-13T11:38:19.889Z,981.99
2018-04-13T11:39:19.813Z,981.99
2018-04-13T11:40:19.736Z,982.06
2018-04-13T11:41:19.663Z,982.08
2018-04-13T11:42:19.586Z,982.15
2018-04-13T11:43:19.509Z,982.20
2018-04-13T11:44:19.433Z,982.15
2018-04-13T11:45:19.357Z,982.21
2018-04-13T11:46:19.283Z,982.28
2018-04-13T11:47:19.208Z,982.27
2018-04-13T11:48:19.130Z,982.34
2018-04-13T11:49:19.055Z,982.40
2018-04-13T11:50:18.980Z,982.41
2018-04-13T11:51:18.901Z,982.45
2018-04-13T11:52:18.829Z,982.45
2018-04-13T11:53:18.750Z,982.46
2018-04-13T11:54:18.675Z,982.51
2018-04-13T11:55:18.599Z,982.50
2018-04-13T11:56:18.523Z,982.50
2018-04-13T11:57:18.446Z,982.55
2018-04-13T11:58:18.372Z,982.51
2018-04-13T11:59:18.295Z,982.50
2018-04-13T12:00:18.217Z,982.52
2018-04-13T12:01:18.143Z,982.56
2018-04-13T12:02:18.068Z,982.62
2018-04-13T12:03:17.991Z,982.69
2018-04-13T12:04:17.916Z,982.69
2018-04-13T12:05:17.840Z,982.70
2018-04-13T12:06:17.766Z,982.76
2018-04-13T12:07:17.987Z,982.76
2018-04-13T12:08:17.611Z,982.81
2018-04-13T12:09:17.534Z,982.81
2018-04-13T12:10:17.459Z,982.91
2018-04-13T12:11:17.383Z,982.88
2018-04-13T12:12:17.306Z,982.93
2018-04-13T12:13:17.237Z,982.91
2018-04-13T12:14:17.156Z,982.89
2018-04-13T12:15:17.078Z,982.96
2018-04-13T12:16:17.004Z,982.98
2018-04-13T12:17:16.927Z,982.98
2018-04-13T12:18:16.853Z,983.01
2018-04-13T12:19:16.776Z,983.00
2018-04-13T12:20:16.701Z,982.99
2018-04-13T12:21:16.624Z,983.02
2018-04-13T12:22:16.552Z,983.02
2018-04-13T12:23:16.472Z,983.03
2018-04-13T12:24:16.397Z,983.04
2018-04-13T12:25:16.322Z,983.08
2018-04-13T12:26:16.247Z,983.13
2018-04-13T12:27:16.169Z,983.15